sensor_id;sensor_type;location;lat;lon;timestamp;temperature;humidity
45837;DHT22;31548;51.420;-0.040;2023-09-19T00:00:39;14.40;99.90
45837;DHT22;31548;51.420;-0.040;2023-09-19T00:03:10;14.40;99.90
45837;DHT22;31548;51.420;-0.040;2023-09-19T00:05:39;14.40;99.90
45837;DHT22;31548;51.420;-0.040;2023-09-19T00:08:12;14.40;99.90
45837;DHT22;31548;51.420;-0.040;2023-09-19T00:10:44;14.40;99.90
45837;DHT22;31548;51.420;-0.040;2023-09-19T00:13:11;14.40;99.90
45837;DHT22;31548;51.420;-0.040;2023-09-19T00:15:47;14.40;99.90
45837;DHT22;31548;51.420;-0.040;2023-09-19T00:18:19;14.40;99.90
45837;DHT22;31548;51.420;-0.040;2023-09-19T00:20:50;14.40;99.90
45837;DHT22;31548;51.420;-0.040;2023-09-19T00:23:20;14.40;99.90
45837;DHT22;31548;51.420;-0.040;2023-09-19T00:25:48;14.50;99.90
45837;DHT22;31548;51.420;-0.040;2023-09-19T00:28:18;14.40;99.90
45837;DHT22;31548;51.420;-0.040;2023-09-19T00:30:47;14.40;99.90
45837;DHT22;31548;51.420;-0.040;2023-09-19T00:33:19;14.40;99.90
45837;DHT22;31548;51.420;-0.040;2023-09-19T00:35:48;14.40;99.90
45837;DHT22;31548;51.420;-0.040;2023-09-19T00:38:16;14.40;99.90
45837;DHT22;31548;51.420;-0.040;2023-09-19T00:40:45;14.40;99.90
45837;DHT22;31548;51.420;-0.040;2023-09-19T00:43:13;14.40;99.90
45837;DHT22;31548;51.420;-0.040;2023-09-19T00:45:47;14.40;99.90
45837;DHT22;31548;51.420;-0.040;2023-09-19T00:48:15;14.40;99.90
45837;DHT22;31548;51.420;-0.040;2023-09-19T00:50:46;14.40;99.90
45837;DHT22;31548;51.420;-0.040;2023-09-19T00:53:21;14.40;99.90
45837;DHT22;31548;51.420;-0.040;2023-09-19T00:55:51;14.40;99.90
45837;DHT22;31548;51.420;-0.040;2023-09-19T00:58:19;14.30;99.90
45837;DHT22;31548;51.420;-0.040;2023-09-19T01:00:51;14.40;99.90
45837;DHT22;31548;51.420;-0.040;2023-09-19T01:03:20;14.30;99.90
45837;DHT22;31548;51.420;-0.040;2023-09-19T01:05:50;14.30;99.90
45837;DHT22;31548;51.420;-0.040;2023-09-19T01:08:19;14.40;99.90
45837;DHT22;31548;51.420;-0.040;2023-09-19T01:11:01;14.40;99.90
45837;DHT22;31548;51.420;-0.040;2023-09-19T01:14:09;14.40;99.90
45837;DHT22;31548;51.420;-0.040;2023-09-19T01:17:00;14.30;99.90
45837;DHT22;31548;51.420;-0.040;2023-09-19T01:28:20;14.40;99.90
45837;DHT22;31548;51.420;-0.040;2023-09-19T01:30:56;14.30;99.90
45837;DHT22;31548;51.420;-0.040;2023-09-19T01:33:28;14.30;99.90
45837;DHT22;31548;51.420;-0.040;2023-09-19T01:36:01;14.30;99.90
45837;DHT22;31548;51.420;-0.040;2023-09-19T01:38:31;14.30;99.90
45837;DHT22;31548;51.420;-0.040;2023-09-19T01:41:06;14.30;99.90
45837;DHT22;31548;51.420;-0.040;2023-09-19T01:43:42;14.40;99.90
45837;DHT22;31548;51.420;-0.040;2023-09-19T01:46:18;14.30;99.90
45837;DHT22;31548;51.420;-0.040;2023-09-19T01:52:12;14.30;99.90
45837;DHT22;31548;51.420;-0.040;2023-09-19T01:54:47;14.30;99.90
45837;DHT22;31548;51.420;-0.040;2023-09-19T01:57:31;14.30;99.90
45837;DHT22;31548;51.420;-0.040;2023-09-19T02:00:07;14.30;99.90
45837;DHT22;31548;51.420;-0.040;2023-09-19T02:02:45;14.30;99.90
45837;DHT22;31548;51.420;-0.040;2023-09-19T02:05:22;14.30;99.90
45837;DHT22;31548;51.420;-0.040;2023-09-19T02:07:53;14.30;99.90
45837;DHT22;31548;51.420;-0.040;2023-09-19T02:10:22;14.30;99.90
45837;DHT22;31548;51.420;-0.040;2023-09-19T02:12:51;14.30;99.90
45837;DHT22;31548;51.420;-0.040;2023-09-19T02:15:18;14.30;99.90
45837;DHT22;31548;51.420;-0.040;2023-09-19T02:17:47;14.30;99.90
45837;DHT22;31548;51.420;-0.040;2023-09-19T02:20:14;14.30;99.90
45837;DHT22;31548;51.420;-0.040;2023-09-19T02:22:43;14.30;99.90
45837;DHT22;31548;51.420;-0.040;2023-09-19T02:25:12;14.30;99.90
45837;DHT22;31548;51.420;-0.040;2023-09-19T02:27:41;14.30;99.90
45837;DHT22;31548;51.420;-0.040;2023-09-19T02:30:10;14.30;99.90
45837;DHT22;31548;51.420;-0.040;2023-09-19T02:32:38;14.30;99.90
45837;DHT22;31548;51.420;-0.040;2023-09-19T02:35:07;14.30;99.90
45837;DHT22;31548;51.420;-0.040;2023-09-19T02:37:35;14.30;99.90
45837;DHT22;31548;51.420;-0.040;2023-09-19T02:40:04;14.30;99.90
45837;DHT22;31548;51.420;-0.040;2023-09-19T02:42:47;14.30;99.90
45837;DHT22;31548;51.420;-0.040;2023-09-19T02:45:17;14.20;99.90
45837;DHT22;31548;51.420;-0.040;2023-09-19T02:47:48;14.20;99.90
45837;DHT22;31548;51.420;-0.040;2023-09-19T02:50:17;14.30;99.90
45837;DHT22;31548;51.420;-0.040;2023-09-19T02:52:46;14.20;99.90
45837;DHT22;31548;51.420;-0.040;2023-09-19T02:55:18;14.20;99.90
45837;DHT22;31548;51.420;-0.040;2023-09-19T02:57:48;14.30;99.90
45837;DHT22;31548;51.420;-0.040;2023-09-19T03:00:17;14.30;99.90
45837;DHT22;31548;51.420;-0.040;2023-09-19T03:02:54;14.30;99.90
45837;DHT22;31548;51.420;-0.040;2023-09-19T03:05:23;14.30;99.90
45837;DHT22;31548;51.420;-0.040;2023-09-19T03:07:52;14.30;99.90
45837;DHT22;31548;51.420;-0.040;2023-09-19T03:10:21;14.30;99.90
45837;DHT22;31548;51.420;-0.040;2023-09-19T03:12:49;14.30;99.90
45837;DHT22;31548;51.420;-0.040;2023-09-19T03:15:18;14.30;99.90
45837;DHT22;31548;51.420;-0.040;2023-09-19T03:17:49;14.30;99.90
45837;DHT22;31548;51.420;-0.040;2023-09-19T03:20:20;14.30;99.90
45837;DHT22;31548;51.420;-0.040;2023-09-19T03:22:50;14.30;99.90
45837;DHT22;31548;51.420;-0.040;2023-09-19T03:25:18;14.30;99.90
45837;DHT22;31548;51.420;-0.040;2023-09-19T03:27:49;14.30;99.90
45837;DHT22;31548;51.420;-0.040;2023-09-19T03:30:17;14.30;99.90
45837;DHT22;31548;51.420;-0.040;2023-09-19T03:32:46;14.30;99.90
45837;DHT22;31548;51.420;-0.040;2023-09-19T03:35:18;14.30;99.90
45837;DHT22;31548;51.420;-0.040;2023-09-19T03:37:47;14.30;99.90
45837;DHT22;31548;51.420;-0.040;2023-09-19T03:40:16;14.20;99.90
45837;DHT22;31548;51.420;-0.040;2023-09-19T03:42:44;14.20;99.90
45837;DHT22;31548;51.420;-0.040;2023-09-19T03:45:13;14.20;99.90
45837;DHT22;31548;51.420;-0.040;2023-09-19T03:47:49;14.10;99.90
45837;DHT22;31548;51.420;-0.040;2023-09-19T03:50:20;14.10;99.90
45837;DHT22;31548;51.420;-0.040;2023-09-19T03:52:48;14.10;99.90
45837;DHT22;31548;51.420;-0.040;2023-09-19T03:55:17;14.10;99.90
45837;DHT22;31548;51.420;-0.040;2023-09-19T03:57:48;14.10;99.90
45837;DHT22;31548;51.420;-0.040;2023-09-19T04:00:17;14.10;99.90
45837;DHT22;31548;51.420;-0.040;2023-09-19T04:02:48;14.10;99.90
45837;DHT22;31548;51.420;-0.040;2023-09-19T04:05:16;14.10;99.90
45837;DHT22;31548;51.420;-0.040;2023-09-19T04:07:45;14.00;99.90
45837;DHT22;31548;51.420;-0.040;2023-09-19T04:10:13;14.10;99.90
45837;DHT22;31548;51.420;-0.040;2023-09-19T04:12:55;14.10;99.90
45837;DHT22;31548;51.420;-0.040;2023-09-19T04:15:23;14.00;99.90
45837;DHT22;31548;51.420;-0.040;2023-09-19T04:17:54;14.10;99.90
45837;DHT22;31548;51.420;-0.040;2023-09-19T04:20:22;14.10;99.90
45837;DHT22;31548;51.420;-0.040;2023-09-19T04:22:50;14.10;99.90
45837;DHT22;31548;51.420;-0.040;2023-09-19T04:25:18;14.10;99.90
45837;DHT22;31548;51.420;-0.040;2023-09-19T04:27:46;14.10;99.90
45837;DHT22;31548;51.420;-0.040;2023-09-19T04:30:15;14.10;99.90
45837;DHT22;31548;51.420;-0.040;2023-09-19T04:32:43;14.10;99.90
45837;DHT22;31548;51.420;-0.040;2023-09-19T04:35:11;14.10;99.90
45837;DHT22;31548;51.420;-0.040;2023-09-19T04:37:39;14.10;99.90
45837;DHT22;31548;51.420;-0.040;2023-09-19T04:40:08;14.10;99.90
45837;DHT22;31548;51.420;-0.040;2023-09-19T04:42:45;14.10;99.90
45837;DHT22;31548;51.420;-0.040;2023-09-19T04:45:20;14.20;99.90
45837;DHT22;31548;51.420;-0.040;2023-09-19T04:47:48;14.20;99.90
45837;DHT22;31548;51.420;-0.040;2023-09-19T04:50:16;14.20;99.90
45837;DHT22;31548;51.420;-0.040;2023-09-19T04:52:45;14.10;99.90
45837;DHT22;31548;51.420;-0.040;2023-09-19T04:55:17;14.20;99.90
45837;DHT22;31548;51.420;-0.040;2023-09-19T04:57:47;14.10;99.90
45837;DHT22;31548;51.420;-0.040;2023-09-19T05:00:16;14.10;99.90
45837;DHT22;31548;51.420;-0.040;2023-09-19T05:02:49;14.10;99.90
45837;DHT22;31548;51.420;-0.040;2023-09-19T05:05:18;14.10;99.90
45837;DHT22;31548;51.420;-0.040;2023-09-19T05:07:46;14.20;99.90
45837;DHT22;31548;51.420;-0.040;2023-09-19T05:10:14;14.20;99.90
45837;DHT22;31548;51.420;-0.040;2023-09-19T05:12:43;14.20;99.90
45837;DHT22;31548;51.420;-0.040;2023-09-19T05:15:13;14.20;99.90
45837;DHT22;31548;51.420;-0.040;2023-09-19T05:17:51;14.30;99.90
45837;DHT22;31548;51.420;-0.040;2023-09-19T05:20:25;14.30;99.90
45837;DHT22;31548;51.420;-0.040;2023-09-19T05:23:01;14.30;99.90
45837;DHT22;31548;51.420;-0.040;2023-09-19T05:25:32;14.30;99.90
45837;DHT22;31548;51.420;-0.040;2023-09-19T05:28:00;14.30;99.90
45837;DHT22;31548;51.420;-0.040;2023-09-19T05:30:34;14.30;99.90
45837;DHT22;31548;51.420;-0.040;2023-09-19T05:33:04;14.30;99.90
45837;DHT22;31548;51.420;-0.040;2023-09-19T05:35:32;14.40;99.90
45837;DHT22;31548;51.420;-0.040;2023-09-19T05:38:00;14.40;99.90
45837;DHT22;31548;51.420;-0.040;2023-09-19T05:40:28;14.40;99.90
45837;DHT22;31548;51.420;-0.040;2023-09-19T05:42:55;14.50;99.90
45837;DHT22;31548;51.420;-0.040;2023-09-19T05:45:23;14.50;99.90
45837;DHT22;31548;51.420;-0.040;2023-09-19T05:47:52;14.50;99.90
45837;DHT22;31548;51.420;-0.040;2023-09-19T05:50:28;14.60;99.90
45837;DHT22;31548;51.420;-0.040;2023-09-19T05:52:56;14.60;99.90
45837;DHT22;31548;51.420;-0.040;2023-09-19T05:55:24;14.70;99.90
45837;DHT22;31548;51.420;-0.040;2023-09-19T05:57:53;14.80;99.90
45837;DHT22;31548;51.420;-0.040;2023-09-19T06:00:22;14.80;99.90
45837;DHT22;31548;51.420;-0.040;2023-09-19T06:02:54;14.80;99.90
45837;DHT22;31548;51.420;-0.040;2023-09-19T06:05:23;14.90;99.90
45837;DHT22;31548;51.420;-0.040;2023-09-19T06:07:51;14.90;99.90
45837;DHT22;31548;51.420;-0.040;2023-09-19T06:10:20;14.90;99.90
45837;DHT22;31548;51.420;-0.040;2023-09-19T06:12:51;15.00;99.90
45837;DHT22;31548;51.420;-0.040;2023-09-19T06:15:20;15.00;99.90
45837;DHT22;31548;51.420;-0.040;2023-09-19T06:17:52;15.10;99.90
45837;DHT22;31548;51.420;-0.040;2023-09-19T06:20:23;15.10;99.90
45837;DHT22;31548;51.420;-0.040;2023-09-19T06:22:52;15.10;99.90
45837;DHT22;31548;51.420;-0.040;2023-09-19T06:25:20;15.20;99.90
45837;DHT22;31548;51.420;-0.040;2023-09-19T06:27:49;15.20;99.90
45837;DHT22;31548;51.420;-0.040;2023-09-19T06:30:20;15.20;99.90
45837;DHT22;31548;51.420;-0.040;2023-09-19T06:32:48;15.30;99.90
45837;DHT22;31548;51.420;-0.040;2023-09-19T06:35:17;15.30;99.90
45837;DHT22;31548;51.420;-0.040;2023-09-19T06:37:44;15.40;99.90
45837;DHT22;31548;51.420;-0.040;2023-09-19T06:40:14;15.40;99.90
45837;DHT22;31548;51.420;-0.040;2023-09-19T06:42:44;15.40;99.90
45837;DHT22;31548;51.420;-0.040;2023-09-19T06:45:13;15.40;99.90
45837;DHT22;31548;51.420;-0.040;2023-09-19T06:47:46;15.40;99.90
45837;DHT22;31548;51.420;-0.040;2023-09-19T06:50:18;15.30;99.90
45837;DHT22;31548;51.420;-0.040;2023-09-19T06:52:47;15.40;99.90
45837;DHT22;31548;51.420;-0.040;2023-09-19T06:55:18;15.40;99.90
45837;DHT22;31548;51.420;-0.040;2023-09-19T06:57:48;15.40;99.90
45837;DHT22;31548;51.420;-0.040;2023-09-19T07:00:16;15.50;99.90
45837;DHT22;31548;51.420;-0.040;2023-09-19T07:02:59;15.60;99.90
45837;DHT22;31548;51.420;-0.040;2023-09-19T07:05:32;15.70;99.90
45837;DHT22;31548;51.420;-0.040;2023-09-19T07:08:00;15.70;99.90
45837;DHT22;31548;51.420;-0.040;2023-09-19T07:10:30;15.80;99.90
45837;DHT22;31548;51.420;-0.040;2023-09-19T07:13:03;15.90;99.90
45837;DHT22;31548;51.420;-0.040;2023-09-19T07:15:32;15.90;99.90
45837;DHT22;31548;51.420;-0.040;2023-09-19T07:18:05;16.00;99.90
45837;DHT22;31548;51.420;-0.040;2023-09-19T07:20:33;16.00;99.90
45837;DHT22;31548;51.420;-0.040;2023-09-19T07:23:01;16.00;99.90
45837;DHT22;31548;51.420;-0.040;2023-09-19T07:25:29;16.10;99.90
45837;DHT22;31548;51.420;-0.040;2023-09-19T07:28:00;16.10;99.90
45837;DHT22;31548;51.420;-0.040;2023-09-19T07:30:28;16.10;99.90
45837;DHT22;31548;51.420;-0.040;2023-09-19T07:32:56;16.20;99.90
45837;DHT22;31548;51.420;-0.040;2023-09-19T07:35:27;16.20;99.90
45837;DHT22;31548;51.420;-0.040;2023-09-19T07:37:54;16.20;99.90
45837;DHT22;31548;51.420;-0.040;2023-09-19T07:40:24;16.20;99.90
45837;DHT22;31548;51.420;-0.040;2023-09-19T07:42:55;16.20;99.90
45837;DHT22;31548;51.420;-0.040;2023-09-19T07:45:23;16.30;99.90
45837;DHT22;31548;51.420;-0.040;2023-09-19T07:47:52;16.30;99.90
45837;DHT22;31548;51.420;-0.040;2023-09-19T07:50:22;16.40;99.90
45837;DHT22;31548;51.420;-0.040;2023-09-19T07:52:50;16.40;99.90
45837;DHT22;31548;51.420;-0.040;2023-09-19T07:55:19;16.40;99.90
45837;DHT22;31548;51.420;-0.040;2023-09-19T07:57:48;16.50;99.90
45837;DHT22;31548;51.420;-0.040;2023-09-19T08:00:16;16.50;99.90
45837;DHT22;31548;51.420;-0.040;2023-09-19T08:02:44;16.50;99.90
45837;DHT22;31548;51.420;-0.040;2023-09-19T08:05:17;16.50;99.90
45837;DHT22;31548;51.420;-0.040;2023-09-19T08:07:46;16.50;99.90
45837;DHT22;31548;51.420;-0.040;2023-09-19T08:10:16;16.50;99.90
45837;DHT22;31548;51.420;-0.040;2023-09-19T08:12:47;16.60;99.90
45837;DHT22;31548;51.420;-0.040;2023-09-19T08:15:23;16.50;99.90
45837;DHT22;31548;51.420;-0.040;2023-09-19T08:17:51;16.60;99.90
45837;DHT22;31548;51.420;-0.040;2023-09-19T08:20:19;16.50;99.90
45837;DHT22;31548;51.420;-0.040;2023-09-19T08:22:52;16.60;99.90
45837;DHT22;31548;51.420;-0.040;2023-09-19T08:25:21;16.60;99.90
45837;DHT22;31548;51.420;-0.040;2023-09-19T08:27:50;16.60;99.90
45837;DHT22;31548;51.420;-0.040;2023-09-19T08:30:20;16.60;99.90
45837;DHT22;31548;51.420;-0.040;2023-09-19T08:33:00;16.60;99.90
45837;DHT22;31548;51.420;-0.040;2023-09-19T08:35:28;16.60;99.90
45837;DHT22;31548;51.420;-0.040;2023-09-19T08:37:56;16.60;99.90
45837;DHT22;31548;51.420;-0.040;2023-09-19T08:40:24;16.60;99.90
45837;DHT22;31548;51.420;-0.040;2023-09-19T08:42:54;16.60;99.90
45837;DHT22;31548;51.420;-0.040;2023-09-19T08:45:24;16.80;99.90
45837;DHT22;31548;51.420;-0.040;2023-09-19T08:51:10;17.10;99.90
45837;DHT22;31548;51.420;-0.040;2023-09-19T08:53:52;17.30;99.90
45837;DHT22;31548;51.420;-0.040;2023-09-19T08:56:22;17.40;99.90
45837;DHT22;31548;51.420;-0.040;2023-09-19T08:58:55;17.40;99.90
45837;DHT22;31548;51.420;-0.040;2023-09-19T09:01:29;17.50;99.90
45837;DHT22;31548;51.420;-0.040;2023-09-19T09:04:02;17.60;99.90
45837;DHT22;31548;51.420;-0.040;2023-09-19T09:06:34;17.60;99.90
45837;DHT22;31548;51.420;-0.040;2023-09-19T09:09:02;17.70;99.90
45837;DHT22;31548;51.420;-0.040;2023-09-19T09:11:33;17.70;99.90
45837;DHT22;31548;51.420;-0.040;2023-09-19T09:14:03;17.80;99.90
45837;DHT22;31548;51.420;-0.040;2023-09-19T09:16:34;17.80;99.90
45837;DHT22;31548;51.420;-0.040;2023-09-19T09:19:02;17.90;99.90
45837;DHT22;31548;51.420;-0.040;2023-09-19T09:21:30;17.90;99.90
45837;DHT22;31548;51.420;-0.040;2023-09-19T09:24:28;17.90;99.90
45837;DHT22;31548;51.420;-0.040;2023-09-19T09:27:03;17.90;99.90
45837;DHT22;31548;51.420;-0.040;2023-09-19T09:29:44;17.90;99.90
45837;DHT22;31548;51.420;-0.040;2023-09-19T09:32:25;18.00;99.90
45837;DHT22;31548;51.420;-0.040;2023-09-19T09:34:54;18.00;99.90
45837;DHT22;31548;51.420;-0.040;2023-09-19T09:37:28;18.00;99.90
45837;DHT22;31548;51.420;-0.040;2023-09-19T09:39:59;17.90;99.90
45837;DHT22;31548;51.420;-0.040;2023-09-19T09:42:46;17.90;99.90
45837;DHT22;31548;51.420;-0.040;2023-09-19T09:45:20;18.00;99.90
45837;DHT22;31548;51.420;-0.040;2023-09-19T09:48:01;17.90;99.90
45837;DHT22;31548;51.420;-0.040;2023-09-19T09:50:34;17.90;99.90
45837;DHT22;31548;51.420;-0.040;2023-09-19T09:53:31;18.00;99.90
45837;DHT22;31548;51.420;-0.040;2023-09-19T09:56:05;18.00;99.90
45837;DHT22;31548;51.420;-0.040;2023-09-19T09:58:34;18.00;99.90
45837;DHT22;31548;51.420;-0.040;2023-09-19T10:01:04;18.00;99.90
45837;DHT22;31548;51.420;-0.040;2023-09-19T10:03:43;17.90;99.90
45837;DHT22;31548;51.420;-0.040;2023-09-19T10:06:14;17.90;99.90
45837;DHT22;31548;51.420;-0.040;2023-09-19T10:09:01;18.00;99.90
45837;DHT22;31548;51.420;-0.040;2023-09-19T10:11:46;18.20;99.90
45837;DHT22;31548;51.420;-0.040;2023-09-19T10:14:15;18.30;99.90
45837;DHT22;31548;51.420;-0.040;2023-09-19T10:16:47;18.30;99.90
45837;DHT22;31548;51.420;-0.040;2023-09-19T10:19:29;18.30;99.90
45837;DHT22;31548;51.420;-0.040;2023-09-19T10:21:58;18.30;99.90
45837;DHT22;31548;51.420;-0.040;2023-09-19T10:24:28;18.20;99.90
45837;DHT22;31548;51.420;-0.040;2023-09-19T10:26:56;18.20;99.90
45837;DHT22;31548;51.420;-0.040;2023-09-19T10:29:26;18.20;99.90
45837;DHT22;31548;51.420;-0.040;2023-09-19T10:32:00;18.20;99.90
45837;DHT22;31548;51.420;-0.040;2023-09-19T10:34:37;18.30;99.90
45837;DHT22;31548;51.420;-0.040;2023-09-19T10:37:12;18.30;99.90
45837;DHT22;31548;51.420;-0.040;2023-09-19T10:39:40;18.40;99.90
45837;DHT22;31548;51.420;-0.040;2023-09-19T10:42:10;18.50;99.90
45837;DHT22;31548;51.420;-0.040;2023-09-19T10:44:42;18.60;99.90
45837;DHT22;31548;51.420;-0.040;2023-09-19T10:47:13;18.90;99.90
45837;DHT22;31548;51.420;-0.040;2023-09-19T10:49:45;19.00;99.90
45837;DHT22;31548;51.420;-0.040;2023-09-19T10:52:25;19.10;99.90
45837;DHT22;31548;51.420;-0.040;2023-09-19T10:54:59;19.00;99.90
45837;DHT22;31548;51.420;-0.040;2023-09-19T10:57:29;19.00;99.90
45837;DHT22;31548;51.420;-0.040;2023-09-19T11:00:07;19.00;99.90
45837;DHT22;31548;51.420;-0.040;2023-09-19T11:03:16;19.00;99.90
45837;DHT22;31548;51.420;-0.040;2023-09-19T11:06:04;19.10;99.90
45837;DHT22;31548;51.420;-0.040;2023-09-19T11:25:47;18.90;99.90
45837;DHT22;31548;51.420;-0.040;2023-09-19T11:30:52;18.70;99.90
45837;DHT22;31548;51.420;-0.040;2023-09-19T11:33:28;18.70;99.90
45837;DHT22;31548;51.420;-0.040;2023-09-19T11:36:13;18.70;99.90
45837;DHT22;31548;51.420;-0.040;2023-09-19T11:46:54;18.70;99.90
45837;DHT22;31548;51.420;-0.040;2023-09-19T11:49:32;18.60;99.90
45837;DHT22;31548;51.420;-0.040;2023-09-19T11:52:01;18.60;99.90
45837;DHT22;31548;51.420;-0.040;2023-09-19T11:54:40;18.60;99.90
45837;DHT22;31548;51.420;-0.040;2023-09-19T11:57:10;18.50;99.90
45837;DHT22;31548;51.420;-0.040;2023-09-19T11:59:39;18.50;99.90
45837;DHT22;31548;51.420;-0.040;2023-09-19T12:02:07;18.40;99.90
45837;DHT22;31548;51.420;-0.040;2023-09-19T12:04:43;18.40;99.90
45837;DHT22;31548;51.420;-0.040;2023-09-19T12:07:14;18.40;99.90
45837;DHT22;31548;51.420;-0.040;2023-09-19T12:09:48;18.40;99.90
45837;DHT22;31548;51.420;-0.040;2023-09-19T12:12:25;18.40;99.90
45837;DHT22;31548;51.420;-0.040;2023-09-19T12:14:57;18.40;99.90
45837;DHT22;31548;51.420;-0.040;2023-09-19T12:17:39;18.40;99.90
45837;DHT22;31548;51.420;-0.040;2023-09-19T12:20:12;18.40;99.90
45837;DHT22;31548;51.420;-0.040;2023-09-19T12:22:42;18.40;99.90
45837;DHT22;31548;51.420;-0.040;2023-09-19T12:25:11;18.40;99.90
45837;DHT22;31548;51.420;-0.040;2023-09-19T12:27:47;18.30;99.90
45837;DHT22;31548;51.420;-0.040;2023-09-19T12:30:16;18.40;99.90
45837;DHT22;31548;51.420;-0.040;2023-09-19T12:32:54;18.30;99.90
45837;DHT22;31548;51.420;-0.040;2023-09-19T12:35:30;18.40;99.90
45837;DHT22;31548;51.420;-0.040;2023-09-19T12:38:03;18.50;99.90
45837;DHT22;31548;51.420;-0.040;2023-09-19T12:40:32;18.50;99.90
45837;DHT22;31548;51.420;-0.040;2023-09-19T12:43:05;18.50;99.90
45837;DHT22;31548;51.420;-0.040;2023-09-19T12:45:35;18.50;99.90
45837;DHT22;31548;51.420;-0.040;2023-09-19T12:48:24;18.50;99.90
45837;DHT22;31548;51.420;-0.040;2023-09-19T12:51:06;18.50;99.90
45837;DHT22;31548;51.420;-0.040;2023-09-19T12:53:43;18.60;99.90
45837;DHT22;31548;51.420;-0.040;2023-09-19T12:56:14;18.60;99.90
45837;DHT22;31548;51.420;-0.040;2023-09-19T12:58:57;18.60;99.90
45837;DHT22;31548;51.420;-0.040;2023-09-19T13:01:30;18.60;99.90
45837;DHT22;31548;51.420;-0.040;2023-09-19T13:04:12;18.50;99.90
45837;DHT22;31548;51.420;-0.040;2023-09-19T13:06:40;18.50;99.90
45837;DHT22;31548;51.420;-0.040;2023-09-19T13:09:11;18.50;99.90
45837;DHT22;31548;51.420;-0.040;2023-09-19T13:11:39;18.40;99.90
45837;DHT22;31548;51.420;-0.040;2023-09-19T13:14:19;18.40;99.90
45837;DHT22;31548;51.420;-0.040;2023-09-19T13:17:03;18.40;99.90
45837;DHT22;31548;51.420;-0.040;2023-09-19T13:22:39;18.30;99.90
45837;DHT22;31548;51.420;-0.040;2023-09-19T13:25:12;18.30;99.90
45837;DHT22;31548;51.420;-0.040;2023-09-19T13:27:52;18.20;99.90
45837;DHT22;31548;51.420;-0.040;2023-09-19T13:30:23;18.10;99.90
45837;DHT22;31548;51.420;-0.040;2023-09-19T13:33:03;18.20;99.90
45837;DHT22;31548;51.420;-0.040;2023-09-19T13:35:33;18.20;99.90
45837;DHT22;31548;51.420;-0.040;2023-09-19T13:38:00;18.10;99.90
45837;DHT22;31548;51.420;-0.040;2023-09-19T13:40:28;18.10;99.90
45837;DHT22;31548;51.420;-0.040;2023-09-19T13:42:59;18.20;99.90
45837;DHT22;31548;51.420;-0.040;2023-09-19T13:45:26;18.10;99.90
45837;DHT22;31548;51.420;-0.040;2023-09-19T13:47:58;18.10;99.90
45837;DHT22;31548;51.420;-0.040;2023-09-19T13:50:28;18.10;99.90
45837;DHT22;31548;51.420;-0.040;2023-09-19T13:52:57;18.20;99.90
45837;DHT22;31548;51.420;-0.040;2023-09-19T13:55:25;18.30;99.90
45837;DHT22;31548;51.420;-0.040;2023-09-19T13:57:52;18.30;99.90
45837;DHT22;31548;51.420;-0.040;2023-09-19T14:00:22;18.30;99.90
45837;DHT22;31548;51.420;-0.040;2023-09-19T14:02:50;18.30;99.90
45837;DHT22;31548;51.420;-0.040;2023-09-19T14:05:19;18.30;99.90
45837;DHT22;31548;51.420;-0.040;2023-09-19T14:07:48;18.30;99.90
45837;DHT22;31548;51.420;-0.040;2023-09-19T14:10:16;18.30;99.90
45837;DHT22;31548;51.420;-0.040;2023-09-19T14:12:47;18.30;99.90
45837;DHT22;31548;51.420;-0.040;2023-09-19T14:15:15;18.40;99.90
45837;DHT22;31548;51.420;-0.040;2023-09-19T14:17:42;18.50;99.90
45837;DHT22;31548;51.420;-0.040;2023-09-19T14:20:12;18.50;99.90
45837;DHT22;31548;51.420;-0.040;2023-09-19T14:22:40;18.60;99.90
45837;DHT22;31548;51.420;-0.040;2023-09-19T14:25:08;18.70;99.90
45837;DHT22;31548;51.420;-0.040;2023-09-19T14:27:36;18.80;99.90
45837;DHT22;31548;51.420;-0.040;2023-09-19T14:30:05;18.80;99.90
45837;DHT22;31548;51.420;-0.040;2023-09-19T14:32:32;18.90;99.90
45837;DHT22;31548;51.420;-0.040;2023-09-19T14:35:01;18.90;99.90
45837;DHT22;31548;51.420;-0.040;2023-09-19T14:37:29;18.90;99.90
45837;DHT22;31548;51.420;-0.040;2023-09-19T14:39:58;18.90;99.90
45837;DHT22;31548;51.420;-0.040;2023-09-19T14:42:25;18.90;99.90
45837;DHT22;31548;51.420;-0.040;2023-09-19T14:44:53;19.00;99.90
45837;DHT22;31548;51.420;-0.040;2023-09-19T14:47:21;18.90;99.90
45837;DHT22;31548;51.420;-0.040;2023-09-19T14:49:48;18.90;99.90
45837;DHT22;31548;51.420;-0.040;2023-09-19T14:52:16;18.90;99.90
45837;DHT22;31548;51.420;-0.040;2023-09-19T14:54:44;18.90;99.90
45837;DHT22;31548;51.420;-0.040;2023-09-19T14:57:11;18.90;99.90
45837;DHT22;31548;51.420;-0.040;2023-09-19T14:59:41;18.90;99.90
45837;DHT22;31548;51.420;-0.040;2023-09-19T15:02:08;18.90;99.90
45837;DHT22;31548;51.420;-0.040;2023-09-19T15:04:36;18.80;99.90
45837;DHT22;31548;51.420;-0.040;2023-09-19T15:07:05;18.80;99.90
45837;DHT22;31548;51.420;-0.040;2023-09-19T15:09:32;18.90;99.90
45837;DHT22;31548;51.420;-0.040;2023-09-19T15:12:00;18.90;99.90
45837;DHT22;31548;51.420;-0.040;2023-09-19T15:14:28;18.90;99.90
45837;DHT22;31548;51.420;-0.040;2023-09-19T15:16:56;18.90;99.90
45837;DHT22;31548;51.420;-0.040;2023-09-19T15:19:24;18.90;99.90
45837;DHT22;31548;51.420;-0.040;2023-09-19T15:21:52;18.90;99.90
45837;DHT22;31548;51.420;-0.040;2023-09-19T15:24:19;19.00;99.90
45837;DHT22;31548;51.420;-0.040;2023-09-19T15:26:47;19.00;99.90
45837;DHT22;31548;51.420;-0.040;2023-09-19T15:29:15;19.00;99.90
45837;DHT22;31548;51.420;-0.040;2023-09-19T15:31:43;19.00;99.90
45837;DHT22;31548;51.420;-0.040;2023-09-19T15:34:11;19.10;99.90
45837;DHT22;31548;51.420;-0.040;2023-09-19T15:40:52;18.90;99.90
45837;DHT22;31548;51.420;-0.040;2023-09-19T15:43:20;19.00;99.90
45837;DHT22;31548;51.420;-0.040;2023-09-19T15:45:49;18.90;99.90
45837;DHT22;31548;51.420;-0.040;2023-09-19T15:48:17;18.90;99.90
45837;DHT22;31548;51.420;-0.040;2023-09-19T15:50:48;18.90;99.90
45837;DHT22;31548;51.420;-0.040;2023-09-19T15:53:16;18.90;99.90
45837;DHT22;31548;51.420;-0.040;2023-09-19T15:55:44;18.90;99.90
45837;DHT22;31548;51.420;-0.040;2023-09-19T15:58:12;18.90;99.90
45837;DHT22;31548;51.420;-0.040;2023-09-19T16:00:40;18.80;99.90
45837;DHT22;31548;51.420;-0.040;2023-09-19T16:03:08;18.80;99.90
45837;DHT22;31548;51.420;-0.040;2023-09-19T16:05:37;18.70;99.90
45837;DHT22;31548;51.420;-0.040;2023-09-19T16:08:07;18.70;99.90
45837;DHT22;31548;51.420;-0.040;2023-09-19T16:10:36;18.70;99.90
45837;DHT22;31548;51.420;-0.040;2023-09-19T16:13:07;18.70;99.90
45837;DHT22;31548;51.420;-0.040;2023-09-19T16:15:42;18.70;99.90
45837;DHT22;31548;51.420;-0.040;2023-09-19T16:18:11;18.70;99.90
45837;DHT22;31548;51.420;-0.040;2023-09-19T16:20:39;18.70;99.90
45837;DHT22;31548;51.420;-0.040;2023-09-19T16:23:07;18.70;99.90
45837;DHT22;31548;51.420;-0.040;2023-09-19T16:25:34;18.80;99.90
45837;DHT22;31548;51.420;-0.040;2023-09-19T16:28:02;18.80;99.90
45837;DHT22;31548;51.420;-0.040;2023-09-19T16:30:32;18.90;99.90